Terminal Aerodrome Forecast
Issued by NWS

Home | Current Version | Previous Version | Text Only | Print | Product List | Glossary On
Versions: 1 2 3 4 5 6 7 8 9 10 11 12 13 14 15 16 17 18 19 20 21 22 23
000
FTUS44 KTSA 202100 AAC
TAFFYV
TAF AMD
KFYV 202138Z 2022/2118 22005KT P6SM OVC021
     FM210600 18002KT 4SM BR OVC015
     FM211200 17002KT 2SM BR OVC004=

USA.gov is the U.S. government's official web portal to all federal, state and local government web resources and services.